sensor_id;sensor_type;location;lat;lon;timestamp;P1;durP1;ratioP1;P2;durP2;ratioP2
63110;SDS011;49201;53.426;10.300;2023-04-06T00:00:53;6.03;;;4.20;;
63110;SDS011;49201;53.426;10.300;2023-04-06T00:03:19;8.77;;;5.30;;
63110;SDS011;49201;53.426;10.300;2023-04-06T00:05:46;7.57;;;4.30;;
63110;SDS011;49201;53.426;10.300;2023-04-06T00:08:12;6.00;;;4.27;;
63110;SDS011;49201;53.426;10.300;2023-04-06T00:10:37;6.30;;;4.33;;
63110;SDS011;49201;53.426;10.300;2023-04-06T00:13:03;5.53;;;4.10;;
63110;SDS011;49201;53.426;10.300;2023-04-06T00:15:28;5.13;;;4.23;;
63110;SDS011;49201;53.426;10.300;2023-04-06T00:17:54;6.13;;;4.40;;
63110;SDS011;49201;53.426;10.300;2023-04-06T00:20:20;6.50;;;4.50;;
63110;SDS011;49201;53.426;10.300;2023-04-06T00:22:45;6.30;;;4.20;;
63110;SDS011;49201;53.426;10.300;2023-04-06T00:25:11;5.73;;;4.10;;
63110;SDS011;49201;53.426;10.300;2023-04-06T00:27:37;6.07;;;4.23;;
63110;SDS011;49201;53.426;10.300;2023-04-06T00:30:04;7.20;;;4.47;;
63110;SDS011;49201;53.426;10.300;2023-04-06T00:32:30;7.07;;;4.23;;
63110;SDS011;49201;53.426;10.300;2023-04-06T00:34:56;5.83;;;4.50;;
63110;SDS011;49201;53.426;10.300;2023-04-06T00:37:21;6.70;;;4.30;;
63110;SDS011;49201;53.426;10.300;2023-04-06T00:39:47;8.17;;;4.47;;
63110;SDS011;49201;53.426;10.300;2023-04-06T00:42:13;6.17;;;4.10;;
63110;SDS011;49201;53.426;10.300;2023-04-06T00:44:40;6.80;;;4.50;;
63110;SDS011;49201;53.426;10.300;2023-04-06T00:47:06;7.90;;;3.83;;
63110;SDS011;49201;53.426;10.300;2023-04-06T00:49:33;6.90;;;4.53;;
63110;SDS011;49201;53.426;10.300;2023-04-06T00:51:59;6.40;;;4.53;;
63110;SDS011;49201;53.426;10.300;2023-04-06T00:54:26;6.63;;;4.70;;
63110;SDS011;49201;53.426;10.300;2023-04-06T00:56:53;7.00;;;4.27;;
63110;SDS011;49201;53.426;10.300;2023-04-06T00:59:18;8.73;;;5.00;;
63110;SDS011;49201;53.426;10.300;2023-04-06T01:01:45;6.57;;;5.03;;
63110;SDS011;49201;53.426;10.300;2023-04-06T01:04:40;8.30;;;4.97;;
63110;SDS011;49201;53.426;10.300;2023-04-06T01:07:10;6.20;;;4.47;;
63110;SDS011;49201;53.426;10.300;2023-04-06T01:09:43;5.97;;;4.73;;
63110;SDS011;49201;53.426;10.300;2023-04-06T01:12:16;9.00;;;5.03;;
63110;SDS011;49201;53.426;10.300;2023-04-06T01:14:42;7.57;;;4.60;;
63110;SDS011;49201;53.426;10.300;2023-04-06T01:17:08;8.60;;;4.73;;
63110;SDS011;49201;53.426;10.300;2023-04-06T01:19:34;8.67;;;4.63;;
63110;SDS011;49201;53.426;10.300;2023-04-06T01:21:59;6.83;;;5.00;;
63110;SDS011;49201;53.426;10.300;2023-04-06T01:24:31;7.80;;;5.13;;
63110;SDS011;49201;53.426;10.300;2023-04-06T01:27:09;8.57;;;5.30;;
63110;SDS011;49201;53.426;10.300;2023-04-06T01:29:55;8.87;;;5.17;;
63110;SDS011;49201;53.426;10.300;2023-04-06T01:32:35;6.07;;;4.93;;
63110;SDS011;49201;53.426;10.300;2023-04-06T01:35:00;9.20;;;4.90;;
63110;SDS011;49201;53.426;10.300;2023-04-06T01:37:26;8.00;;;5.17;;
63110;SDS011;49201;53.426;10.300;2023-04-06T01:39:54;8.17;;;5.30;;
63110;SDS011;49201;53.426;10.300;2023-04-06T01:42:34;7.40;;;4.87;;
63110;SDS011;49201;53.426;10.300;2023-04-06T01:45:00;9.03;;;5.33;;
63110;SDS011;49201;53.426;10.300;2023-04-06T01:47:26;8.13;;;5.27;;
63110;SDS011;49201;53.426;10.300;2023-04-06T01:49:52;6.70;;;4.90;;
63110;SDS011;49201;53.426;10.300;2023-04-06T01:52:17;7.40;;;4.83;;
63110;SDS011;49201;53.426;10.300;2023-04-06T01:54:49;4.97;;;4.43;;
63110;SDS011;49201;53.426;10.300;2023-04-06T01:57:45;9.73;;;5.60;;
63110;SDS011;49201;53.426;10.300;2023-04-06T02:00:24;7.10;;;5.13;;
63110;SDS011;49201;53.426;10.300;2023-04-06T02:02:52;7.90;;;5.23;;
63110;SDS011;49201;53.426;10.300;2023-04-06T02:05:23;7.57;;;5.80;;
63110;SDS011;49201;53.426;10.300;2023-04-06T02:07:50;6.50;;;5.20;;
63110;SDS011;49201;53.426;10.300;2023-04-06T02:10:21;7.70;;;5.43;;
63110;SDS011;49201;53.426;10.300;2023-04-06T02:12:47;8.13;;;5.27;;
63110;SDS011;49201;53.426;10.300;2023-04-06T02:15:19;8.80;;;5.37;;
63110;SDS011;49201;53.426;10.300;2023-04-06T02:17:46;7.10;;;4.40;;
63110;SDS011;49201;53.426;10.300;2023-04-06T02:20:11;6.83;;;5.20;;
63110;SDS011;49201;53.426;10.300;2023-04-06T02:22:38;8.03;;;5.63;;
63110;SDS011;49201;53.426;10.300;2023-04-06T02:25:04;6.73;;;5.33;;
63110;SDS011;49201;53.426;10.300;2023-04-06T02:27:30;7.67;;;5.30;;
63110;SDS011;49201;53.426;10.300;2023-04-06T02:29:55;8.30;;;5.70;;
63110;SDS011;49201;53.426;10.300;2023-04-06T02:32:21;6.53;;;4.70;;
63110;SDS011;49201;53.426;10.300;2023-04-06T02:34:46;9.43;;;5.90;;
63110;SDS011;49201;53.426;10.300;2023-04-06T02:37:13;9.80;;;6.00;;
63110;SDS011;49201;53.426;10.300;2023-04-06T02:39:38;8.03;;;5.80;;
63110;SDS011;49201;53.426;10.300;2023-04-06T02:42:07;9.27;;;5.73;;
63110;SDS011;49201;53.426;10.300;2023-04-06T02:44:34;8.30;;;6.00;;
63110;SDS011;49201;53.426;10.300;2023-04-06T02:47:00;9.20;;;5.53;;
63110;SDS011;49201;53.426;10.300;2023-04-06T02:49:26;9.27;;;6.07;;
63110;SDS011;49201;53.426;10.300;2023-04-06T02:51:54;10.67;;;6.03;;
63110;SDS011;49201;53.426;10.300;2023-04-06T02:54:24;6.67;;;5.63;;
63110;SDS011;49201;53.426;10.300;2023-04-06T02:56:50;8.27;;;5.87;;
63110;SDS011;49201;53.426;10.300;2023-04-06T02:59:16;7.40;;;5.67;;
63110;SDS011;49201;53.426;10.300;2023-04-06T03:01:49;7.23;;;5.60;;
63110;SDS011;49201;53.426;10.300;2023-04-06T03:04:14;8.20;;;5.90;;
63110;SDS011;49201;53.426;10.300;2023-04-06T03:06:40;9.47;;;5.80;;
63110;SDS011;49201;53.426;10.300;2023-04-06T03:09:16;10.50;;;6.23;;
63110;SDS011;49201;53.426;10.300;2023-04-06T03:11:43;9.67;;;6.43;;
63110;SDS011;49201;53.426;10.300;2023-04-06T03:14:08;9.30;;;6.33;;
63110;SDS011;49201;53.426;10.300;2023-04-06T03:16:34;8.93;;;5.90;;
63110;SDS011;49201;53.426;10.300;2023-04-06T03:19:00;8.77;;;6.23;;
63110;SDS011;49201;53.426;10.300;2023-04-06T03:21:27;8.23;;;6.00;;
63110;SDS011;49201;53.426;10.300;2023-04-06T03:23:53;9.30;;;6.40;;
63110;SDS011;49201;53.426;10.300;2023-04-06T03:26:19;13.00;;;6.20;;
63110;SDS011;49201;53.426;10.300;2023-04-06T03:28:44;8.27;;;6.47;;
63110;SDS011;49201;53.426;10.300;2023-04-06T03:31:10;8.77;;;6.40;;
63110;SDS011;49201;53.426;10.300;2023-04-06T03:33:52;8.70;;;6.07;;
63110;SDS011;49201;53.426;10.300;2023-04-06T03:36:22;9.50;;;6.37;;
63110;SDS011;49201;53.426;10.300;2023-04-06T03:38:47;10.07;;;6.70;;
63110;SDS011;49201;53.426;10.300;2023-04-06T03:41:13;8.33;;;6.03;;
63110;SDS011;49201;53.426;10.300;2023-04-06T03:43:44;11.27;;;7.20;;
63110;SDS011;49201;53.426;10.300;2023-04-06T03:46:10;10.43;;;6.37;;
63110;SDS011;49201;53.426;10.300;2023-04-06T03:48:35;8.03;;;6.47;;
63110;SDS011;49201;53.426;10.300;2023-04-06T03:51:04;10.00;;;7.10;;
63110;SDS011;49201;53.426;10.300;2023-04-06T03:53:30;8.43;;;6.10;;
63110;SDS011;49201;53.426;10.300;2023-04-06T03:55:55;10.33;;;6.80;;
63110;SDS011;49201;53.426;10.300;2023-04-06T03:58:21;10.50;;;6.87;;
63110;SDS011;49201;53.426;10.300;2023-04-06T04:00:46;9.57;;;6.40;;
63110;SDS011;49201;53.426;10.300;2023-04-06T04:03:12;9.77;;;6.50;;
63110;SDS011;49201;53.426;10.300;2023-04-06T04:05:37;10.93;;;7.30;;
63110;SDS011;49201;53.426;10.300;2023-04-06T04:08:03;10.60;;;7.60;;
63110;SDS011;49201;53.426;10.300;2023-04-06T04:10:29;12.23;;;6.87;;
63110;SDS011;49201;53.426;10.300;2023-04-06T04:12:55;9.13;;;6.50;;
63110;SDS011;49201;53.426;10.300;2023-04-06T04:15:20;13.90;;;7.30;;
63110;SDS011;49201;53.426;10.300;2023-04-06T04:17:46;10.93;;;7.13;;
63110;SDS011;49201;53.426;10.300;2023-04-06T04:20:14;10.00;;;6.90;;
63110;SDS011;49201;53.426;10.300;2023-04-06T04:22:41;11.67;;;6.50;;
63110;SDS011;49201;53.426;10.300;2023-04-06T04:25:08;12.40;;;7.47;;
63110;SDS011;49201;53.426;10.300;2023-04-06T04:27:39;12.13;;;7.27;;
63110;SDS011;49201;53.426;10.300;2023-04-06T04:30:05;13.60;;;7.77;;
63110;SDS011;49201;53.426;10.300;2023-04-06T04:32:31;11.87;;;7.77;;
63110;SDS011;49201;53.426;10.300;2023-04-06T04:34:59;10.00;;;7.40;;
63110;SDS011;49201;53.426;10.300;2023-04-06T04:37:36;9.73;;;6.80;;
63110;SDS011;49201;53.426;10.300;2023-04-06T04:40:02;10.93;;;6.73;;
63110;SDS011;49201;53.426;10.300;2023-04-06T04:42:33;10.97;;;6.90;;
63110;SDS011;49201;53.426;10.300;2023-04-06T04:45:00;12.13;;;7.43;;
63110;SDS011;49201;53.426;10.300;2023-04-06T04:47:34;13.30;;;7.37;;
63110;SDS011;49201;53.426;10.300;2023-04-06T04:50:00;10.57;;;7.33;;
63110;SDS011;49201;53.426;10.300;2023-04-06T04:52:26;11.23;;;7.10;;
63110;SDS011;49201;53.426;10.300;2023-04-06T04:55:17;14.30;;;7.77;;
63110;SDS011;49201;53.426;10.300;2023-04-06T04:57:45;15.53;;;8.73;;
63110;SDS011;49201;53.426;10.300;2023-04-06T05:00:11;12.37;;;8.63;;
63110;SDS011;49201;53.426;10.300;2023-04-06T05:02:40;14.30;;;8.83;;
63110;SDS011;49201;53.426;10.300;2023-04-06T05:05:13;10.87;;;8.50;;
63110;SDS011;49201;53.426;10.300;2023-04-06T05:07:39;13.93;;;8.10;;
63110;SDS011;49201;53.426;10.300;2023-04-06T05:10:09;13.13;;;8.00;;
63110;SDS011;49201;53.426;10.300;2023-04-06T05:12:42;12.73;;;9.07;;
63110;SDS011;49201;53.426;10.300;2023-04-06T05:15:09;17.63;;;9.53;;
63110;SDS011;49201;53.426;10.300;2023-04-06T05:17:36;16.37;;;8.37;;
63110;SDS011;49201;53.426;10.300;2023-04-06T05:20:02;18.53;;;9.97;;
63110;SDS011;49201;53.426;10.300;2023-04-06T05:22:32;18.67;;;9.13;;
63110;SDS011;49201;53.426;10.300;2023-04-06T05:25:04;25.77;;;9.93;;
63110;SDS011;49201;53.426;10.300;2023-04-06T05:27:30;17.60;;;9.43;;
63110;SDS011;49201;53.426;10.300;2023-04-06T05:29:57;24.50;;;9.47;;
63110;SDS011;49201;53.426;10.300;2023-04-06T05:32:25;17.90;;;8.40;;
63110;SDS011;49201;53.426;10.300;2023-04-06T05:34:51;15.50;;;8.83;;
63110;SDS011;49201;53.426;10.300;2023-04-06T05:37:16;21.43;;;8.57;;
63110;SDS011;49201;53.426;10.300;2023-04-06T05:39:42;13.43;;;8.30;;
63110;SDS011;49201;53.426;10.300;2023-04-06T05:42:07;25.60;;;9.70;;
63110;SDS011;49201;53.426;10.300;2023-04-06T05:44:55;27.53;;;9.40;;
63110;SDS011;49201;53.426;10.300;2023-04-06T05:47:20;45.27;;;9.73;;
63110;SDS011;49201;53.426;10.300;2023-04-06T05:49:51;30.23;;;8.53;;
63110;SDS011;49201;53.426;10.300;2023-04-06T05:52:35;16.73;;;8.23;;
63110;SDS011;49201;53.426;10.300;2023-04-06T05:55:00;10.67;;;7.70;;
63110;SDS011;49201;53.426;10.300;2023-04-06T05:57:26;13.00;;;8.40;;
63110;SDS011;49201;53.426;10.300;2023-04-06T05:59:53;10.73;;;7.83;;
63110;SDS011;49201;53.426;10.300;2023-04-06T06:02:19;15.93;;;8.67;;
63110;SDS011;49201;53.426;10.300;2023-04-06T06:04:48;13.67;;;7.43;;
63110;SDS011;49201;53.426;10.300;2023-04-06T06:07:16;10.17;;;7.00;;
63110;SDS011;49201;53.426;10.300;2023-04-06T06:09:47;10.27;;;7.63;;
63110;SDS011;49201;53.426;10.300;2023-04-06T06:12:20;11.40;;;7.37;;
63110;SDS011;49201;53.426;10.300;2023-04-06T06:14:48;10.13;;;7.33;;
63110;SDS011;49201;53.426;10.300;2023-04-06T06:17:14;10.93;;;7.77;;
63110;SDS011;49201;53.426;10.300;2023-04-06T06:19:41;11.50;;;7.60;;
63110;SDS011;49201;53.426;10.300;2023-04-06T06:22:07;12.27;;;8.13;;
63110;SDS011;49201;53.426;10.300;2023-04-06T06:24:36;10.80;;;7.70;;
63110;SDS011;49201;53.426;10.300;2023-04-06T06:27:02;12.07;;;8.00;;
63110;SDS011;49201;53.426;10.300;2023-04-06T06:29:30;9.90;;;7.90;;
63110;SDS011;49201;53.426;10.300;2023-04-06T06:31:57;10.40;;;7.70;;
63110;SDS011;49201;53.426;10.300;2023-04-06T06:34:23;11.53;;;7.80;;
63110;SDS011;49201;53.426;10.300;2023-04-06T06:36:49;17.53;;;8.37;;
63110;SDS011;49201;53.426;10.300;2023-04-06T06:39:16;12.70;;;7.80;;
63110;SDS011;49201;53.426;10.300;2023-04-06T06:41:42;10.97;;;7.40;;
63110;SDS011;49201;53.426;10.300;2023-04-06T06:44:08;11.90;;;7.10;;
63110;SDS011;49201;53.426;10.300;2023-04-06T06:46:34;9.97;;;7.37;;
63110;SDS011;49201;53.426;10.300;2023-04-06T06:48:59;11.43;;;7.37;;
63110;SDS011;49201;53.426;10.300;2023-04-06T06:51:25;9.70;;;7.40;;
63110;SDS011;49201;53.426;10.300;2023-04-06T06:53:51;11.53;;;6.60;;
63110;SDS011;49201;53.426;10.300;2023-04-06T06:56:16;9.33;;;6.63;;
63110;SDS011;49201;53.426;10.300;2023-04-06T06:58:42;12.00;;;6.70;;
63110;SDS011;49201;53.426;10.300;2023-04-06T07:01:08;11.97;;;6.40;;
63110;SDS011;49201;53.426;10.300;2023-04-06T07:03:34;10.30;;;6.20;;
63110;SDS011;49201;53.426;10.300;2023-04-06T07:05:59;8.83;;;6.63;;
63110;SDS011;49201;53.426;10.300;2023-04-06T07:08:25;9.03;;;6.10;;
63110;SDS011;49201;53.426;10.300;2023-04-06T07:10:51;10.57;;;6.53;;
63110;SDS011;49201;53.426;10.300;2023-04-06T07:13:18;6.93;;;5.43;;
63110;SDS011;49201;53.426;10.300;2023-04-06T07:15:49;7.80;;;5.70;;
63110;SDS011;49201;53.426;10.300;2023-04-06T07:18:15;9.03;;;5.80;;
63110;SDS011;49201;53.426;10.300;2023-04-06T07:20:41;10.13;;;6.57;;
63110;SDS011;49201;53.426;10.300;2023-04-06T07:23:07;7.57;;;6.10;;
63110;SDS011;49201;53.426;10.300;2023-04-06T07:25:32;8.70;;;6.30;;
63110;SDS011;49201;53.426;10.300;2023-04-06T07:27:58;8.77;;;5.60;;
63110;SDS011;49201;53.426;10.300;2023-04-06T07:30:24;7.33;;;5.43;;
63110;SDS011;49201;53.426;10.300;2023-04-06T07:32:54;9.57;;;5.80;;
63110;SDS011;49201;53.426;10.300;2023-04-06T07:35:25;8.03;;;6.10;;
63110;SDS011;49201;53.426;10.300;2023-04-06T07:37:52;7.17;;;5.20;;
63110;SDS011;49201;53.426;10.300;2023-04-06T07:40:18;7.67;;;5.90;;
63110;SDS011;49201;53.426;10.300;2023-04-06T07:42:45;7.10;;;5.23;;
63110;SDS011;49201;53.426;10.300;2023-04-06T07:45:11;7.97;;;5.20;;
63110;SDS011;49201;53.426;10.300;2023-04-06T07:47:37;7.90;;;4.40;;
63110;SDS011;49201;53.426;10.300;2023-04-06T07:50:03;6.30;;;4.97;;
63110;SDS011;49201;53.426;10.300;2023-04-06T07:52:30;5.93;;;4.87;;
63110;SDS011;49201;53.426;10.300;2023-04-06T07:54:57;6.97;;;4.80;;
63110;SDS011;49201;53.426;10.300;2023-04-06T07:57:23;6.87;;;4.83;;
63110;SDS011;49201;53.426;10.300;2023-04-06T07:59:49;6.30;;;4.20;;
63110;SDS011;49201;53.426;10.300;2023-04-06T08:02:14;7.53;;;4.83;;
63110;SDS011;49201;53.426;10.300;2023-04-06T08:04:40;8.10;;;4.53;;
63110;SDS011;49201;53.426;10.300;2023-04-06T08:07:05;5.23;;;4.70;;
63110;SDS011;49201;53.426;10.300;2023-04-06T08:09:31;6.30;;;4.90;;
63110;SDS011;49201;53.426;10.300;2023-04-06T08:11:57;8.07;;;4.70;;
63110;SDS011;49201;53.426;10.300;2023-04-06T08:14:23;10.37;;;5.23;;
63110;SDS011;49201;53.426;10.300;2023-04-06T08:16:48;7.10;;;4.57;;
63110;SDS011;49201;53.426;10.300;2023-04-06T08:19:14;6.57;;;4.20;;
63110;SDS011;49201;53.426;10.300;2023-04-06T08:21:42;6.07;;;5.00;;
63110;SDS011;49201;53.426;10.300;2023-04-06T08:24:08;7.07;;;4.70;;
63110;SDS011;49201;53.426;10.300;2023-04-06T08:26:34;7.53;;;5.27;;
63110;SDS011;49201;53.426;10.300;2023-04-06T08:28:59;6.67;;;5.10;;
63110;SDS011;49201;53.426;10.300;2023-04-06T08:31:25;8.47;;;5.87;;
63110;SDS011;49201;53.426;10.300;2023-04-06T08:33:51;9.03;;;6.07;;
63110;SDS011;49201;53.426;10.300;2023-04-06T08:36:17;8.53;;;5.87;;
63110;SDS011;49201;53.426;10.300;2023-04-06T08:38:47;7.77;;;5.80;;
63110;SDS011;49201;53.426;10.300;2023-04-06T08:41:14;8.63;;;5.43;;
63110;SDS011;49201;53.426;10.300;2023-04-06T08:44:02;9.53;;;4.90;;
63110;SDS011;49201;53.426;10.300;2023-04-06T08:46:30;5.73;;;4.93;;
63110;SDS011;49201;53.426;10.300;2023-04-06T08:49:00;6.90;;;5.13;;
63110;SDS011;49201;53.426;10.300;2023-04-06T08:51:28;15.60;;;5.83;;
63110;SDS011;49201;53.426;10.300;2023-04-06T08:53:55;9.17;;;5.70;;
63110;SDS011;49201;53.426;10.300;2023-04-06T08:56:22;8.17;;;4.87;;
63110;SDS011;49201;53.426;10.300;2023-04-06T08:58:48;6.60;;;5.03;;
63110;SDS011;49201;53.426;10.300;2023-04-06T09:01:15;6.90;;;4.77;;
63110;SDS011;49201;53.426;10.300;2023-04-06T09:03:42;6.60;;;4.73;;
63110;SDS011;49201;53.426;10.300;2023-04-06T09:06:10;6.90;;;5.17;;
63110;SDS011;49201;53.426;10.300;2023-04-06T09:08:38;7.90;;;5.20;;
63110;SDS011;49201;53.426;10.300;2023-04-06T09:11:05;6.17;;;4.63;;
63110;SDS011;49201;53.426;10.300;2023-04-06T09:13:31;5.80;;;4.67;;
63110;SDS011;49201;53.426;10.300;2023-04-06T09:16:03;5.07;;;4.37;;
63110;SDS011;49201;53.426;10.300;2023-04-06T09:18:31;5.57;;;4.57;;
63110;SDS011;49201;53.426;10.300;2023-04-06T09:20:58;6.33;;;4.07;;
63110;SDS011;49201;53.426;10.300;2023-04-06T09:23:31;7.33;;;4.53;;
63110;SDS011;49201;53.426;10.300;2023-04-06T09:26:04;7.20;;;4.30;;
63110;SDS011;49201;53.426;10.300;2023-04-06T09:28:50;6.67;;;3.13;;
63110;SDS011;49201;53.426;10.300;2023-04-06T09:31:21;7.10;;;3.60;;
63110;SDS011;49201;53.426;10.300;2023-04-06T09:33:48;4.47;;;2.87;;
63110;SDS011;49201;53.426;10.300;2023-04-06T09:36:14;4.43;;;3.33;;
63110;SDS011;49201;53.426;10.300;2023-04-06T09:38:55;4.00;;;3.20;;
63110;SDS011;49201;53.426;10.300;2023-04-06T09:41:26;3.90;;;3.10;;
63110;SDS011;49201;53.426;10.300;2023-04-06T09:46:31;5.53;;;4.07;;
63110;SDS011;49201;53.426;10.300;2023-04-06T09:49:02;5.60;;;4.10;;
63110;SDS011;49201;53.426;10.300;2023-04-06T09:51:30;4.73;;;3.60;;
63110;SDS011;49201;53.426;10.300;2023-04-06T09:54:00;6.17;;;3.87;;
63110;SDS011;49201;53.426;10.300;2023-04-06T09:56:30;5.40;;;4.10;;
63110;SDS011;49201;53.426;10.300;2023-04-06T09:59:01;5.73;;;4.23;;
63110;SDS011;49201;53.426;10.300;2023-04-06T10:01:31;7.20;;;4.60;;
63110;SDS011;49201;53.426;10.300;2023-04-06T10:04:03;6.60;;;4.57;;
63110;SDS011;49201;53.426;10.300;2023-04-06T10:06:32;7.57;;;4.70;;
63110;SDS011;49201;53.426;10.300;2023-04-06T10:09:01;9.80;;;4.80;;
63110;SDS011;49201;53.426;10.300;2023-04-06T10:11:29;6.63;;;4.77;;
63110;SDS011;49201;53.426;10.300;2023-04-06T10:13:56;7.13;;;4.27;;
63110;SDS011;49201;53.426;10.300;2023-04-06T10:16:22;6.50;;;4.73;;
63110;SDS011;49201;53.426;10.300;2023-04-06T10:18:52;5.87;;;4.30;;
63110;SDS011;49201;53.426;10.300;2023-04-06T10:21:23;6.10;;;4.53;;
63110;SDS011;49201;53.426;10.300;2023-04-06T10:23:52;7.70;;;4.80;;
63110;SDS011;49201;53.426;10.300;2023-04-06T10:26:20;6.07;;;5.03;;
63110;SDS011;49201;53.426;10.300;2023-04-06T10:28:47;8.70;;;5.10;;
63110;SDS011;49201;53.426;10.300;2023-04-06T10:31:14;6.90;;;5.00;;
63110;SDS011;49201;53.426;10.300;2023-04-06T10:33:40;5.70;;;4.60;;
63110;SDS011;49201;53.426;10.300;2023-04-06T10:36:12;5.87;;;4.50;;
63110;SDS011;49201;53.426;10.300;2023-04-06T10:38:39;8.47;;;4.90;;
63110;SDS011;49201;53.426;10.300;2023-04-06T10:41:06;8.37;;;4.93;;
63110;SDS011;49201;53.426;10.300;2023-04-06T10:43:34;7.23;;;5.17;;
63110;SDS011;49201;53.426;10.300;2023-04-06T10:46:01;6.43;;;4.80;;
63110;SDS011;49201;53.426;10.300;2023-04-06T10:48:40;5.67;;;4.93;;
63110;SDS011;49201;53.426;10.300;2023-04-06T10:51:14;9.63;;;5.83;;
63110;SDS011;49201;53.426;10.300;2023-04-06T10:53:41;5.83;;;4.73;;
63110;SDS011;49201;53.426;10.300;2023-04-06T10:56:09;7.20;;;5.57;;
63110;SDS011;49201;53.426;10.300;2023-04-06T10:58:46;14.63;;;5.83;;
63110;SDS011;49201;53.426;10.300;2023-04-06T11:01:16;8.93;;;5.27;;
63110;SDS011;49201;53.426;10.300;2023-04-06T11:03:43;5.80;;;4.83;;
63110;SDS011;49201;53.426;10.300;2023-04-06T11:06:19;7.93;;;5.20;;
63110;SDS011;49201;53.426;10.300;2023-04-06T11:08:48;9.83;;;6.40;;
63110;SDS011;49201;53.426;10.300;2023-04-06T11:11:17;10.73;;;6.03;;
63110;SDS011;49201;53.426;10.300;2023-04-06T11:13:55;7.57;;;6.27;;
63110;SDS011;49201;53.426;10.300;2023-04-06T11:16:22;9.17;;;6.93;;
63110;SDS011;49201;53.426;10.300;2023-04-06T11:19:13;8.77;;;6.37;;
63110;SDS011;49201;53.426;10.300;2023-04-06T11:21:39;7.27;;;6.50;;
63110;SDS011;49201;53.426;10.300;2023-04-06T11:26:50;8.93;;;7.23;;
63110;SDS011;49201;53.426;10.300;2023-04-06T11:29:17;8.53;;;6.80;;
63110;SDS011;49201;53.426;10.300;2023-04-06T11:31:51;7.67;;;6.47;;
63110;SDS011;49201;53.426;10.300;2023-04-06T11:34:18;9.73;;;6.70;;
63110;SDS011;49201;53.426;10.300;2023-04-06T11:36:45;9.87;;;6.83;;
63110;SDS011;49201;53.426;10.300;2023-04-06T11:39:13;8.87;;;6.90;;
63110;SDS011;49201;53.426;10.300;2023-04-06T11:41:46;8.10;;;6.27;;
63110;SDS011;49201;53.426;10.300;2023-04-06T11:44:12;8.60;;;7.10;;
63110;SDS011;49201;53.426;10.300;2023-04-06T11:46:38;8.67;;;6.93;;
63110;SDS011;49201;53.426;10.300;2023-04-06T11:49:03;8.27;;;6.70;;
63110;SDS011;49201;53.426;10.300;2023-04-06T11:51:29;7.07;;;6.13;;
63110;SDS011;49201;53.426;10.300;2023-04-06T11:53:54;7.50;;;6.30;;
63110;SDS011;49201;53.426;10.300;2023-04-06T11:56:27;10.20;;;6.80;;
63110;SDS011;49201;53.426;10.300;2023-04-06T11:58:57;9.23;;;7.07;;
63110;SDS011;49201;53.426;10.300;2023-04-06T12:01:25;9.67;;;6.20;;
63110;SDS011;49201;53.426;10.300;2023-04-06T12:03:51;8.77;;;6.87;;
63110;SDS011;49201;53.426;10.300;2023-04-06T12:06:17;8.60;;;6.80;;
63110;SDS011;49201;53.426;10.300;2023-04-06T12:08:43;9.73;;;7.17;;
63110;SDS011;49201;53.426;10.300;2023-04-06T12:11:10;8.30;;;7.03;;
63110;SDS011;49201;53.426;10.300;2023-04-06T12:13:36;8.97;;;6.93;;
63110;SDS011;49201;53.426;10.300;2023-04-06T12:16:02;9.77;;;7.13;;
63110;SDS011;49201;53.426;10.300;2023-04-06T12:18:27;8.90;;;7.20;;
63110;SDS011;49201;53.426;10.300;2023-04-06T12:20:53;9.53;;;7.20;;
63110;SDS011;49201;53.426;10.300;2023-04-06T12:23:19;11.03;;;7.13;;
63110;SDS011;49201;53.426;10.300;2023-04-06T12:25:45;9.63;;;7.33;;
63110;SDS011;49201;53.426;10.300;2023-04-06T12:28:11;7.63;;;6.53;;
63110;SDS011;49201;53.426;10.300;2023-04-06T12:30:36;8.37;;;6.90;;
63110;SDS011;49201;53.426;10.300;2023-04-06T12:33:02;7.43;;;6.60;;
63110;SDS011;49201;53.426;10.300;2023-04-06T12:35:28;9.07;;;6.87;;
63110;SDS011;49201;53.426;10.300;2023-04-06T12:37:53;8.93;;;7.17;;
63110;SDS011;49201;53.426;10.300;2023-04-06T12:40:19;7.73;;;6.40;;
63110;SDS011;49201;53.426;10.300;2023-04-06T12:42:45;7.63;;;6.87;;
63110;SDS011;49201;53.426;10.300;2023-04-06T12:45:12;7.50;;;6.37;;
63110;SDS011;49201;53.426;10.300;2023-04-06T12:47:37;11.13;;;7.33;;
63110;SDS011;49201;53.426;10.300;2023-04-06T12:50:03;7.83;;;6.73;;
63110;SDS011;49201;53.426;10.300;2023-04-06T12:52:30;7.97;;;7.17;;
63110;SDS011;49201;53.426;10.300;2023-04-06T12:54:57;7.83;;;6.47;;
63110;SDS011;49201;53.426;10.300;2023-04-06T12:57:24;8.00;;;6.00;;
63110;SDS011;49201;53.426;10.300;2023-04-06T12:59:50;7.80;;;7.00;;
63110;SDS011;49201;53.426;10.300;2023-04-06T13:02:16;8.80;;;7.73;;
63110;SDS011;49201;53.426;10.300;2023-04-06T13:04:42;8.00;;;6.70;;
63110;SDS011;49201;53.426;10.300;2023-04-06T13:07:07;7.53;;;6.77;;
63110;SDS011;49201;53.426;10.300;2023-04-06T13:09:33;9.47;;;6.70;;
63110;SDS011;49201;53.426;10.300;2023-04-06T13:11:58;9.37;;;7.20;;
63110;SDS011;49201;53.426;10.300;2023-04-06T13:14:24;8.87;;;7.67;;
63110;SDS011;49201;53.426;10.300;2023-04-06T13:16:50;11.57;;;7.67;;
63110;SDS011;49201;53.426;10.300;2023-04-06T13:19:16;7.83;;;7.00;;
63110;SDS011;49201;53.426;10.300;2023-04-06T13:21:43;8.33;;;6.77;;
63110;SDS011;49201;53.426;10.300;2023-04-06T13:24:08;8.97;;;6.73;;
63110;SDS011;49201;53.426;10.300;2023-04-06T13:26:34;8.83;;;7.87;;
63110;SDS011;49201;53.426;10.300;2023-04-06T13:29:00;8.93;;;7.57;;
63110;SDS011;49201;53.426;10.300;2023-04-06T13:31:27;7.50;;;6.80;;
63110;SDS011;49201;53.426;10.300;2023-04-06T13:33:53;9.27;;;7.20;;
63110;SDS011;49201;53.426;10.300;2023-04-06T13:36:19;8.40;;;7.50;;
63110;SDS011;49201;53.426;10.300;2023-04-06T13:38:44;9.00;;;6.97;;
63110;SDS011;49201;53.426;10.300;2023-04-06T13:41:17;8.27;;;6.87;;
63110;SDS011;49201;53.426;10.300;2023-04-06T13:43:44;8.30;;;7.30;;
63110;SDS011;49201;53.426;10.300;2023-04-06T13:46:09;9.13;;;6.67;;
63110;SDS011;49201;53.426;10.300;2023-04-06T13:48:35;8.03;;;6.67;;
63110;SDS011;49201;53.426;10.300;2023-04-06T13:53:39;10.10;;;6.83;;
63110;SDS011;49201;53.426;10.300;2023-04-06T13:56:05;8.70;;;7.33;;
63110;SDS011;49201;53.426;10.300;2023-04-06T13:58:31;9.90;;;7.80;;
63110;SDS011;49201;53.426;10.300;2023-04-06T14:01:03;8.57;;;7.23;;
63110;SDS011;49201;53.426;10.300;2023-04-06T14:03:31;9.80;;;7.60;;
63110;SDS011;49201;53.426;10.300;2023-04-06T14:05:57;8.90;;;7.20;;
63110;SDS011;49201;53.426;10.300;2023-04-06T14:08:22;8.73;;;7.30;;
63110;SDS011;49201;53.426;10.300;2023-04-06T14:10:47;10.23;;;8.33;;
63110;SDS011;49201;53.426;10.300;2023-04-06T14:13:13;9.97;;;7.07;;
63110;SDS011;49201;53.426;10.300;2023-04-06T14:15:38;8.20;;;6.93;;
63110;SDS011;49201;53.426;10.300;2023-04-06T14:18:04;8.57;;;7.63;;
63110;SDS011;49201;53.426;10.300;2023-04-06T14:20:32;8.90;;;7.70;;
63110;SDS011;49201;53.426;10.300;2023-04-06T14:23:01;8.57;;;7.27;;
63110;SDS011;49201;53.426;10.300;2023-04-06T14:25:27;9.60;;;8.10;;
63110;SDS011;49201;53.426;10.300;2023-04-06T14:27:56;10.10;;;7.43;;
63110;SDS011;49201;53.426;10.300;2023-04-06T14:30:21;9.70;;;7.33;;
63110;SDS011;49201;53.426;10.300;2023-04-06T14:32:46;8.10;;;7.17;;
63110;SDS011;49201;53.426;10.300;2023-04-06T14:35:12;7.67;;;6.40;;
63110;SDS011;49201;53.426;10.300;2023-04-06T14:37:37;10.27;;;7.00;;
63110;SDS011;49201;53.426;10.300;2023-04-06T14:40:03;13.60;;;6.97;;
63110;SDS011;49201;53.426;10.300;2023-04-06T14:42:29;8.53;;;7.07;;